54.7°F
Current conditions from King Hill
Updated every 5 minutes
 
  Wednesday October 1, 2014

Station Historical Data
Daily Summary for July 17, 2012 Units:  Both    English   Metric
« Previous Day
Next Day »
Daily Weekly Monthly Yearly Custom
  High: Low: Average:
Temperature: 86.2 °F /  30.1 °C 66.8 °F /  19.3 °C 72.4 °F /  22.4 °C
Dew Point: 77.1 °F /  25.1 °C 63.8 °F /  17.7 °C 67.9 °F /  19.9 °C
Humidity: 96% 64% 86%
Wind Speed: 7.0mph /  11.3km/h - 1.9mph /  3.1km/h
Wind Gust: 17.0mph /  27.4km/h - -
Wind- - SW
Pressure: 29.74 in /  1007 hPa 29.52 in /  999.5 hPa -
Precipitation: 0.17 in /  4.3 mm    
Historical Graphs
 
 
Tabular Data for July 17, 2012
Time Temperature Dew Point Pressure Wind Wind Speed Wind Gust Humidity Daily Rainfall
00:04 67.7 °F /  19.8 °C 65.0 °F /  18.3 °C 29.74in /  1007hPa Calm     91% 0.00in /  0mm
00:09 67.8 °F /  19.9 °C 65.1 °F /  18.4 °C 29.74in /  1007hPa Calm     91% 0.00in /  0mm
00:14 67.9 °F /  19.9 °C 64.9 °F /  18.3 °C 29.74in /  1007hPa Calm   2.0mph /  3.2km/h 90% 0.00in /  0mm
00:19 68.0 °F /  20 °C 64.6 °F /  18.1 °C 29.74in /  1007hPa SSW 1.0mph /  1.6km/h 2.0mph /  3.2km/h 89% 0.00in /  0mm
00:24 68.3 °F /  20.2 °C 64.9 °F /  18.3 °C 29.74in /  1007hPa Calm   3.0mph /  4.8km/h 89% 0.00in /  0mm
00:29 68.3 °F /  20.2 °C 64.6 °F /  18.1 °C 29.74in /  1007hPa Calm   3.0mph /  4.8km/h 88% 0.00in /  0mm
00:34 68.3 °F /  20.2 °C 64.6 °F /  18.1 °C 29.74in /  1007hPa Calm   2.0mph /  3.2km/h 88% 0.00in /  0mm
00:39 68.4 °F /  20.2 °C 64.7 °F /  18.2 °C 29.73in /  1006.7hPa Calm   2.0mph /  3.2km/h 88% 0.00in /  0mm
00:44 68.3 °F /  20.2 °C 64.6 °F /  18.1 °C 29.73in /  1006.7hPa Calm   2.0mph /  3.2km/h 88% 0.00in /  0mm
00:49 68.2 °F /  20.1 °C 64.5 °F /  18.1 °C 29.73in /  1006.7hPa Calm   2.0mph /  3.2km/h 88% 0.00in /  0mm
00:54 68.1 °F /  20.1 °C 64.4 °F /  18 °C 29.74in /  1007hPa South 1.0mph /  1.6km/h 3.0mph /  4.8km/h 88% 0.00in /  0mm
00:59 68.0 °F /  20 °C 64.3 °F /  17.9 °C 29.73in /  1006.7hPa Calm   3.0mph /  4.8km/h 88% 0.00in /  0mm
01:04 68.0 °F /  20 °C 64.6 °F /  18.1 °C 29.73in /  1006.7hPa Calm   2.0mph /  3.2km/h 89% 0.00in /  0mm
01:09 67.9 °F /  19.9 °C 64.5 °F /  18.1 °C 29.74in /  1007hPa South 1.0mph /  1.6km/h 3.0mph /  4.8km/h 89% 0.00in /  0mm
01:14 67.9 °F /  19.9 °C 64.5 °F /  18.1 °C 29.74in /  1007hPa South 1.0mph /  1.6km/h 4.0mph /  6.4km/h 89% 0.00in /  0mm
01:19 67.9 °F /  19.9 °C 64.5 °F /  18.1 °C 29.73in /  1006.7hPa South 1.0mph /  1.6km/h 4.0mph /  6.4km/h 89% 0.00in /  0mm
01:24 67.9 °F /  19.9 °C 64.5 °F /  18.1 °C 29.73in /  1006.7hPa Calm   4.0mph /  6.4km/h 89% 0.00in /  0mm
01:29 67.9 °F /  19.9 °C 64.5 °F /  18.1 °C 29.73in /  1006.7hPa Calm   3.0mph /  4.8km/h 89% 0.00in /  0mm
01:34 67.9 °F /  19.9 °C 64.5 °F /  18.1 °C 29.73in /  1006.7hPa Calm   3.0mph /  4.8km/h 89% 0.00in /  0mm
01:39 67.9 °F /  19.9 °C 64.5 °F /  18.1 °C 29.73in /  1006.7hPa Calm   2.0mph /  3.2km/h 89% 0.00in /  0mm
01:44 67.9 °F /  19.9 °C 64.5 °F /  18.1 °C 29.73in /  1006.7hPa South 1.0mph /  1.6km/h 3.0mph /  4.8km/h 89% 0.00in /  0mm
01:49 67.9 °F /  19.9 °C 64.5 °F /  18.1 °C 29.73in /  1006.7hPa Calm   3.0mph /  4.8km/h 89% 0.00in /  0mm
01:54 68.0 °F /  20 °C 64.6 °F /  18.1 °C 29.73in /  1006.7hPa South 1.0mph /  1.6km/h 3.0mph /  4.8km/h 89% 0.00in /  0mm
01:59 68.0 °F /  20 °C 64.6 °F /  18.1 °C 29.73in /  1006.7hPa Calm   3.0mph /  4.8km/h 89% 0.00in /  0mm
02:04 68.0 °F /  20 °C 64.6 °F /  18.1 °C 29.73in /  1006.7hPa Calm   3.0mph /  4.8km/h 89% 0.00in /  0mm
02:09 68.1 °F /  20.1 °C 64.7 °F /  18.2 °C 29.72in /  1006.3hPa Calm   2.0mph /  3.2km/h 89% 0.00in /  0mm
02:14 68.1 °F /  20.1 °C 64.7 °F /  18.2 °C 29.72in /  1006.3hPa Calm   2.0mph /  3.2km/h 89% 0.00in /  0mm
02:19 68.1 °F /  20.1 °C 64.7 °F /  18.2 °C 29.72in /  1006.3hPa Calm   2.0mph /  3.2km/h 89% 0.00in /  0mm
02:24 68.2 °F /  20.1 °C 64.8 °F /  18.2 °C 29.72in /  1006.3hPa SW 1.0mph /  1.6km/h 4.0mph /  6.4km/h 89% 0.00in /  0mm
02:29 68.2 °F /  20.1 °C 64.8 °F /  18.2 °C 29.71in /  1006hPa Calm   4.0mph /  6.4km/h 89% 0.00in /  0mm
02:34 68.0 °F /  20 °C 64.6 °F /  18.1 °C 29.71in /  1006hPa Calm   3.0mph /  4.8km/h 89% 0.00in /  0mm
02:39 67.9 °F /  19.9 °C 64.5 °F /  18.1 °C 29.71in /  1006hPa Calm   2.0mph /  3.2km/h 89% 0.00in /  0mm
02:44 67.8 °F /  19.9 °C 64.4 °F /  18 °C 29.71in /  1006hPa Calm   3.0mph /  4.8km/h 89% 0.00in /  0mm
02:49 67.7 °F /  19.8 °C 64.3 °F /  17.9 °C 29.71in /  1006hPa Calm   3.0mph /  4.8km/h 89% 0.00in /  0mm
02:54 67.6 °F /  19.8 °C 64.2 °F /  17.9 °C 29.71in /  1006hPa Calm   3.0mph /  4.8km/h 89% 0.00in /  0mm
02:59 67.4 °F /  19.7 °C 64.0 °F /  17.8 °C 29.71in /  1006hPa Calm   2.0mph /  3.2km/h 89% 0.00in /  0mm
03:04 67.3 °F /  19.6 °C 63.9 °F /  17.7 °C 29.71in /  1006hPa Calm   2.0mph /  3.2km/h 89% 0.00in /  0mm
03:09 67.1 °F /  19.5 °C 63.8 °F /  17.7 °C 29.70in /  1005.6hPa Calm   1.0mph /  1.6km/h 89% 0.00in /  0mm
03:14 66.9 °F /  19.4 °C 63.9 °F /  17.7 °C 29.71in /  1006hPa Calm   2.0mph /  3.2km/h 90% 0.00in /  0mm
03:19 66.9 °F /  19.4 °C 63.9 °F /  17.7 °C 29.70in /  1005.6hPa Calm   2.0mph /  3.2km/h 90% 0.00in /  0mm
03:24 66.9 °F /  19.4 °C 63.9 °F /  17.7 °C 29.70in /  1005.6hPa Calm   4.0mph /  6.4km/h 90% 0.00in /  0mm
03:29 66.8 °F /  19.3 °C 63.8 °F /  17.7 °C 29.70in /  1005.6hPa Calm   4.0mph /  6.4km/h 90% 0.00in /  0mm
03:34 66.9 °F /  19.4 °C 64.2 °F /  17.9 °C 29.70in /  1005.6hPa Calm   2.0mph /  3.2km/h 91% 0.00in /  0mm
03:39 66.9 °F /  19.4 °C 64.5 °F /  18.1 °C 29.71in /  1006hPa Calm   2.0mph /  3.2km/h 92% 0.00in /  0mm
03:44 67.1 °F /  19.5 °C 64.4 °F /  18 °C 29.71in /  1006hPa Calm   3.0mph /  4.8km/h 91% 0.00in /  0mm
03:49 67.2 °F /  19.6 °C 64.5 °F /  18.1 °C 29.70in /  1005.6hPa Calm   5.0mph /  8km/h 91% 0.00in /  0mm
03:54 67.3 °F /  19.6 °C 64.6 °F /  18.1 °C 29.70in /  1005.6hPa Calm   5.0mph /  8km/h 91% 0.00in /  0mm
03:59 67.4 °F /  19.7 °C 64.7 °F /  18.2 °C 29.69in /  1005.3hPa Calm   3.0mph /  4.8km/h 91% 0.00in /  0mm
04:04 67.6 °F /  19.8 °C 64.9 °F /  18.3 °C 29.69in /  1005.3hPa Calm   3.0mph /  4.8km/h 91% 0.00in /  0mm
04:09 67.7 °F /  19.8 °C 65.0 °F /  18.3 °C 29.69in /  1005.3hPa SW 1.0mph /  1.6km/h 4.0mph /  6.4km/h 91% 0.00in /  0mm
04:14 67.8 °F /  19.9 °C 65.1 °F /  18.4 °C 29.69in /  1005.3hPa Calm   4.0mph /  6.4km/h 91% 0.00in /  0mm
04:19 67.8 °F /  19.9 °C 64.8 °F /  18.2 °C 29.68in /  1005hPa Calm   1.0mph /  1.6km/h 90% 0.00in /  0mm
04:24 67.7 °F /  19.8 °C 64.7 °F /  18.2 °C 29.68in /  1005hPa Calm   1.0mph /  1.6km/h 90% 0.00in /  0mm
04:29 67.7 °F /  19.8 °C 64.7 °F /  18.2 °C 29.68in /  1005hPa Calm   1.0mph /  1.6km/h 90% 0.00in /  0mm
04:34 67.8 °F /  19.9 °C 65.1 °F /  18.4 °C 29.67in /  1004.6hPa SSW 2.0mph /  3.2km/h 6.0mph /  9.7km/h 91% 0.00in /  0mm
04:39 68.1 °F /  20.1 °C 65.1 °F /  18.4 °C 29.68in /  1005hPa Calm   6.0mph /  9.7km/h 90% 0.00in /  0mm
04:44 68.1 °F /  20.1 °C 65.1 °F /  18.4 °C 29.68in /  1005hPa Calm   4.0mph /  6.4km/h 90% 0.00in /  0mm
04:49 68.1 °F /  20.1 °C 65.1 °F /  18.4 °C 29.68in /  1005hPa Calm   4.0mph /  6.4km/h 90% 0.00in /  0mm
04:54 68.0 °F /  20 °C 65.0 °F /  18.3 °C 29.68in /  1005hPa Calm   4.0mph /  6.4km/h 90% 0.00in /  0mm
04:59 67.9 °F /  19.9 °C 64.9 °F /  18.3 °C 29.68in /  1005hPa Calm   2.0mph /  3.2km/h 90% 0.00in /  0mm
05:04 67.9 °F /  19.9 °C 64.9 °F /  18.3 °C 29.68in /  1005hPa Calm   2.0mph /  3.2km/h 90% 0.00in /  0mm
05:09 67.8 °F /  19.9 °C 64.8 °F /  18.2 °C 29.68in /  1005hPa Calm   1.0mph /  1.6km/h 90% 0.00in /  0mm
05:14 67.8 °F /  19.9 °C 64.8 °F /  18.2 °C 29.68in /  1005hPa Calm   1.0mph /  1.6km/h 90% 0.00in /  0mm
05:19 67.7 °F /  19.8 °C 64.7 °F /  18.2 °C 29.67in /  1004.6hPa Calm   1.0mph /  1.6km/h 90% 0.00in /  0mm
05:24 67.8 °F /  19.9 °C 65.1 °F /  18.4 °C 29.67in /  1004.6hPa Calm   6.0mph /  9.7km/h 91% 0.00in /  0mm
05:29 67.9 °F /  19.9 °C 65.2 °F /  18.4 °C 29.67in /  1004.6hPa Calm   6.0mph /  9.7km/h 91% 0.00in /  0mm
05:34 68.0 °F /  20 °C 65.0 °F /  18.3 °C 29.67in /  1004.6hPa Calm   4.0mph /  6.4km/h 90% 0.00in /  0mm
05:39 68.1 °F /  20.1 °C 65.1 °F /  18.4 °C 29.67in /  1004.6hPa Calm   4.0mph /  6.4km/h 90% 0.00in /  0mm
05:45 68.1 °F /  20.1 °C 65.1 °F /  18.4 °C 29.66in /  1004.3hPa Calm   3.0mph /  4.8km/h 90% 0.00in /  0mm
05:54 68.4 °F /  20.2 °C 65.4 °F /  18.6 °C 29.66in /  1004.3hPa SW 1.0mph /  1.6km/h 5.0mph /  8km/h 90% 0.00in /  0mm
05:59 68.5 °F /  20.3 °C 65.1 °F /  18.4 °C 29.66in /  1004.3hPa Calm   4.0mph /  6.4km/h 89% 0.00in /  0mm
06:04 68.7 °F /  20.4 °C 65.3 °F /  18.5 °C 29.65in /  1003.9hPa Calm   5.0mph /  8km/h 89% 0.00in /  0mm
06:09 68.8 °F /  20.4 °C 65.1 °F /  18.4 °C 29.65in /  1003.9hPa SW 1.0mph /  1.6km/h 5.0mph /  8km/h 88% 0.00in /  0mm
06:14 69.0 °F /  20.6 °C 65.3 °F /  18.5 °C 29.65in /  1003.9hPa Calm   5.0mph /  8km/h 88% 0.00in /  0mm
06:19 69.1 °F /  20.6 °C 65.1 °F /  18.4 °C 29.65in /  1003.9hPa Calm   5.0mph /  8km/h 87% 0.00in /  0mm
06:25 69.2 °F /  20.7 °C 65.2 °F /  18.4 °C 29.65in /  1003.9hPa Calm   4.0mph /  6.4km/h 87% 0.00in /  0mm
06:34 69.5 °F /  20.8 °C 65.1 °F /  18.4 °C 29.65in /  1003.9hPa Calm   6.0mph /  9.7km/h 86% 0.00in /  0mm
06:39 69.5 °F /  20.8 °C 65.1 °F /  18.4 °C 29.66in /  1004.3hPa Calm   2.0mph /  3.2km/h 86% 0.00in /  0mm
06:44 69.4 °F /  20.8 °C 65.4 °F /  18.6 °C 29.66in /  1004.3hPa Calm     87% 0.00in /  0mm
06:49 69.3 °F /  20.7 °C 65.3 °F /  18.5 °C 29.65in /  1003.9hPa Calm     87% 0.00in /  0mm
06:54 69.2 °F /  20.7 °C 65.2 °F /  18.4 °C 29.65in /  1003.9hPa Calm   2.0mph /  3.2km/h 87% 0.01in /  0.3mm
06:59 69.1 °F /  20.6 °C 65.1 °F /  18.4 °C 29.65in /  1003.9hPa Calm   3.0mph /  4.8km/h 87% 0.01in /  0.3mm
07:04 69.0 °F /  20.6 °C 65.3 °F /  18.5 °C 29.64in /  1003.6hPa Calm   3.0mph /  4.8km/h 88% 0.01in /  0.3mm
07:09 68.9 °F /  20.5 °C 65.2 °F /  18.4 °C 29.64in /  1003.6hPa SSW 1.0mph /  1.6km/h 4.0mph /  6.4km/h 88% 0.01in /  0.3mm
07:14 68.8 °F /  20.4 °C 65.4 °F /  18.6 °C 29.64in /  1003.6hPa SSW 2.0mph /  3.2km/h 8.0mph /  12.9km/h 89% 0.02in /  0.5mm
07:19 68.8 °F /  20.4 °C 65.4 °F /  18.6 °C 29.64in /  1003.6hPa Calm   8.0mph /  12.9km/h 89% 0.02in /  0.5mm
07:24 68.8 °F /  20.4 °C 65.4 °F /  18.6 °C 29.64in /  1003.6hPa Calm   5.0mph /  8km/h 89% 0.02in /  0.5mm
07:29 68.8 °F /  20.4 °C 65.4 °F /  18.6 °C 29.63in /  1003.3hPa Calm   4.0mph /  6.4km/h 89% 0.02in /  0.5mm
07:34 68.7 °F /  20.4 °C 65.3 °F /  18.5 °C 29.63in /  1003.3hPa Calm   4.0mph /  6.4km/h 89% 0.02in /  0.5mm
07:39 68.6 °F /  20.3 °C 65.2 °F /  18.4 °C 29.63in /  1003.3hPa SSW 1.0mph /  1.6km/h 5.0mph /  8km/h 89% 0.02in /  0.5mm
07:44 68.5 °F /  20.3 °C 65.5 °F /  18.6 °C 29.64in /  1003.6hPa SSW 1.0mph /  1.6km/h 7.0mph /  11.3km/h 90% 0.02in /  0.5mm
07:49 68.6 °F /  20.3 °C 65.6 °F /  18.7 °C 29.64in /  1003.6hPa Calm   7.0mph /  11.3km/h 90% 0.02in /  0.5mm
07:54 68.6 °F /  20.3 °C 65.6 °F /  18.7 °C 29.63in /  1003.3hPa SW 1.0mph /  1.6km/h 5.0mph /  8km/h 90% 0.02in /  0.5mm
07:59 68.8 °F /  20.4 °C 65.7 °F /  18.7 °C 29.63in /  1003.3hPa SSW 1.0mph /  1.6km/h 8.0mph /  12.9km/h 90% 0.02in /  0.5mm
08:04 68.8 °F /  20.4 °C 65.7 °F /  18.7 °C 29.62in /  1002.9hPa South 1.0mph /  1.6km/h 8.0mph /  12.9km/h 90% 0.02in /  0.5mm
08:09 68.8 °F /  20.4 °C 65.7 °F /  18.7 °C 29.62in /  1002.9hPa Calm   8.0mph /  12.9km/h 90% 0.02in /  0.5mm
08:14 68.8 °F /  20.4 °C 65.7 °F /  18.7 °C 29.63in /  1003.3hPa Calm   8.0mph /  12.9km/h 90% 0.02in /  0.5mm
08:19 68.9 °F /  20.5 °C 65.5 °F /  18.6 °C 29.63in /  1003.3hPa SW 1.0mph /  1.6km/h 8.0mph /  12.9km/h 89% 0.02in /  0.5mm
08:24 69.0 °F /  20.6 °C 65.6 °F /  18.7 °C 29.63in /  1003.3hPa SW 2.0mph /  3.2km/h 8.0mph /  12.9km/h 89% 0.03in /  0.8mm
08:29 69.0 °F /  20.6 °C 65.6 °F /  18.7 °C 29.64in /  1003.6hPa Calm   8.0mph /  12.9km/h 89% 0.05in /  1.3mm
08:34 69.0 °F /  20.6 °C 65.9 °F /  18.8 °C 29.64in /  1003.6hPa SSW 2.0mph /  3.2km/h 8.0mph /  12.9km/h 90% 0.05in /  1.3mm
08:39 68.9 °F /  20.5 °C 65.8 °F /  18.8 °C 29.64in /  1003.6hPa SSW 1.0mph /  1.6km/h 8.0mph /  12.9km/h 90% 0.07in /  1.8mm
08:44 68.8 °F /  20.4 °C 65.7 °F /  18.7 °C 29.64in /  1003.6hPa Calm   7.0mph /  11.3km/h 90% 0.08in /  2mm
08:49 68.7 °F /  20.4 °C 65.7 °F /  18.7 °C 29.64in /  1003.6hPa Calm   5.0mph /  8km/h 90% 0.08in /  2mm
08:54 68.7 °F /  20.4 °C 65.7 °F /  18.7 °C 29.64in /  1003.6hPa Calm   5.0mph /  8km/h 90% 0.09in /  2.3mm
08:59 68.7 °F /  20.4 °C 66.0 °F /  18.9 °C 29.64in /  1003.6hPa Calm   3.0mph /  4.8km/h 91% 0.09in /  2.3mm
09:04 68.6 °F /  20.3 °C 65.9 °F /  18.8 °C 29.64in /  1003.6hPa SSW 1.0mph /  1.6km/h 5.0mph /  8km/h 91% 0.09in /  2.3mm
09:09 68.6 °F /  20.3 °C 65.9 °F /  18.8 °C 29.65in /  1003.9hPa Calm   7.0mph /  11.3km/h 91% 0.09in /  2.3mm
09:14 68.7 °F /  20.4 °C 66.0 °F /  18.9 °C 29.64in /  1003.6hPa Calm   7.0mph /  11.3km/h 91% 0.09in /  2.3mm
09:19 68.9 °F /  20.5 °C 66.2 °F /  19 °C 29.64in /  1003.6hPa Calm   7.0mph /  11.3km/h 91% 0.09in /  2.3mm
09:24 68.9 °F /  20.5 °C 66.2 °F /  19 °C 29.64in /  1003.6hPa Calm   7.0mph /  11.3km/h 91% 0.09in /  2.3mm
09:29 69.0 °F /  20.6 °C 66.3 °F /  19.1 °C 29.64in /  1003.6hPa SSW 1.0mph /  1.6km/h 8.0mph /  12.9km/h 91% 0.09in /  2.3mm
09:34 69.0 °F /  20.6 °C 66.3 °F /  19.1 °C 29.64in /  1003.6hPa SW 3.0mph /  4.8km/h 9.0mph /  14.5km/h 91% 0.09in /  2.3mm
09:39 69.2 °F /  20.7 °C 66.5 °F /  19.2 °C 29.64in /  1003.6hPa SW 2.0mph /  3.2km/h 12.0mph /  19.3km/h 91% 0.09in /  2.3mm
09:44 69.4 °F /  20.8 °C 66.3 °F /  19.1 °C 29.63in /  1003.3hPa SW 2.0mph /  3.2km/h 12.0mph /  19.3km/h 90% 0.09in /  2.3mm
09:49 69.5 °F /  20.8 °C 66.4 °F /  19.1 °C 29.63in /  1003.3hPa SW 2.0mph /  3.2km/h 9.0mph /  14.5km/h 90% 0.09in /  2.3mm
09:54 69.5 °F /  20.8 °C 66.4 °F /  19.1 °C 29.63in /  1003.3hPa SW 1.0mph /  1.6km/h 9.0mph /  14.5km/h 90% 0.09in /  2.3mm
09:59 69.5 °F /  20.8 °C 66.4 °F /  19.1 °C 29.63in /  1003.3hPa Calm   10.0mph /  16.1km/h 90% 0.09in /  2.3mm
10:04 69.5 °F /  20.8 °C 66.4 °F /  19.1 °C 29.63in /  1003.3hPa SSW 1.0mph /  1.6km/h 10.0mph /  16.1km/h 90% 0.09in /  2.3mm
10:09 69.5 °F /  20.8 °C 66.8 °F /  19.3 °C 29.62in /  1002.9hPa Calm   8.0mph /  12.9km/h 91% 0.09in /  2.3mm
10:14 69.5 °F /  20.8 °C 66.8 °F /  19.3 °C 29.62in /  1002.9hPa SW 1.0mph /  1.6km/h 7.0mph /  11.3km/h 91% 0.09in /  2.3mm
10:19 70.0 °F /  21.1 °C 67.6 °F /  19.8 °C 29.62in /  1002.9hPa SW 2.0mph /  3.2km/h 9.0mph /  14.5km/h 92% 0.09in /  2.3mm
10:24 70.6 °F /  21.4 °C 67.8 °F /  19.9 °C 29.61in /  1002.6hPa SSW 1.0mph /  1.6km/h 12.0mph /  19.3km/h 91% 0.09in /  2.3mm
10:29 71.4 °F /  21.9 °C 68.6 °F /  20.3 °C 29.61in /  1002.6hPa Calm   12.0mph /  19.3km/h 91% 0.09in /  2.3mm
10:34 72.1 °F /  22.3 °C 69.0 °F /  20.6 °C 29.61in /  1002.6hPa SSW 5.0mph /  8km/h 12.0mph /  19.3km/h 90% 0.09in /  2.3mm
10:39 72.7 °F /  22.6 °C 69.3 °F /  20.7 °C 29.61in /  1002.6hPa SSW 1.0mph /  1.6km/h 12.0mph /  19.3km/h 89% 0.09in /  2.3mm
10:44 73.3 °F /  22.9 °C 69.5 °F /  20.8 °C 29.61in /  1002.6hPa SW 3.0mph /  4.8km/h 10.0mph /  16.1km/h 88% 0.09in /  2.3mm
10:49 73.8 °F /  23.2 °C 69.4 °F /  20.8 °C 29.60in /  1002.3hPa SSW 5.0mph /  8km/h 17.0mph /  27.4km/h 86% 0.09in /  2.3mm
10:54 74.5 °F /  23.6 °C 70.0 °F /  21.1 °C 29.60in /  1002.3hPa SSW 4.0mph /  6.4km/h 17.0mph /  27.4km/h 86% 0.09in /  2.3mm
10:59 75.2 °F /  24 °C 70.4 °F /  21.3 °C 29.60in /  1002.3hPa SSW 2.0mph /  3.2km/h 14.0mph /  22.5km/h 85% 0.09in /  2.3mm
11:05 76.2 °F /  24.6 °C 71.7 °F /  22.1 °C 29.60in /  1002.3hPa SW 3.0mph /  4.8km/h 12.0mph /  19.3km/h 86% 0.09in /  2.3mm
11:14 76.2 °F /  24.6 °C 70.3 °F /  21.3 °C 29.60in /  1002.3hPa SW 4.0mph /  6.4km/h 10.0mph /  16.1km/h 82% 0.09in /  2.3mm
11:19 76.2 °F /  24.6 °C 70.3 °F /  21.3 °C 29.61in /  1002.6hPa SW 3.0mph /  4.8km/h 9.0mph /  14.5km/h 82% 0.09in /  2.3mm
11:24 76.1 °F /  24.5 °C 69.9 °F /  21.1 °C 29.60in /  1002.3hPa SW 1.0mph /  1.6km/h 8.0mph /  12.9km/h 81% 0.09in /  2.3mm
11:29 76.1 °F /  24.5 °C 69.9 °F /  21.1 °C 29.60in /  1002.3hPa Calm   8.0mph /  12.9km/h 81% 0.09in /  2.3mm
11:34 76.1 °F /  24.5 °C 69.9 °F /  21.1 °C 29.60in /  1002.3hPa Calm   7.0mph /  11.3km/h 81% 0.09in /  2.3mm
11:40 76.1 °F /  24.5 °C 69.5 °F /  20.8 °C 29.60in /  1002.3hPa SSW 2.0mph /  3.2km/h 9.0mph /  14.5km/h 80% 0.09in /  2.3mm
11:49 77.3 °F /  25.2 °C 70.3 °F /  21.3 °C 29.60in /  1002.3hPa SW 2.0mph /  3.2km/h 12.0mph /  19.3km/h 79% 0.09in /  2.3mm
11:54 77.4 °F /  25.2 °C 68.9 °F /  20.5 °C 29.60in /  1002.3hPa SW 5.0mph /  8km/h 11.0mph /  17.7km/h 75% 0.09in /  2.3mm
11:59 77.3 °F /  25.2 °C 69.5 °F /  20.8 °C 29.59in /  1001.9hPa Calm   11.0mph /  17.7km/h 77% 0.09in /  2.3mm
12:04 77.6 °F /  25.3 °C 70.2 °F /  21.2 °C 29.59in /  1001.9hPa SW 1.0mph /  1.6km/h 7.0mph /  11.3km/h 78% 0.09in /  2.3mm
12:09 78.1 °F /  25.6 °C 70.3 °F /  21.3 °C 29.59in /  1001.9hPa Calm   12.0mph /  19.3km/h 77% 0.09in /  2.3mm
12:14 78.0 °F /  25.6 °C 69.8 °F /  21 °C 29.59in /  1001.9hPa SW 2.0mph /  3.2km/h 12.0mph /  19.3km/h 76% 0.09in /  2.3mm
12:19 78.2 °F /  25.7 °C 70.8 °F /  21.6 °C 29.59in /  1001.9hPa SW 2.0mph /  3.2km/h 9.0mph /  14.5km/h 78% 0.09in /  2.3mm
12:24 78.7 °F /  25.9 °C 70.9 °F /  21.6 °C 29.59in /  1001.9hPa Calm   9.0mph /  14.5km/h 77% 0.09in /  2.3mm
12:29 78.8 °F /  26 °C 69.8 °F /  21 °C 29.59in /  1001.9hPa South 1.0mph /  1.6km/h 6.0mph /  9.7km/h 74% 0.09in /  2.3mm
12:34 78.7 °F /  25.9 °C 70.1 °F /  21.2 °C 29.59in /  1001.9hPa Calm   6.0mph /  9.7km/h 75% 0.09in /  2.3mm
12:39 78.7 °F /  25.9 °C 70.9 °F /  21.6 °C 29.59in /  1001.9hPa Calm   4.0mph /  6.4km/h 77% 0.09in /  2.3mm
12:45 78.8 °F /  26 °C 70.2 °F /  21.2 °C 29.58in /  1001.6hPa Calm   5.0mph /  8km/h 75% 0.09in /  2.3mm
12:54 79.3 °F /  26.3 °C 70.7 °F /  21.5 °C 29.58in /  1001.6hPa Calm   6.0mph /  9.7km/h 75% 0.09in /  2.3mm
12:59 79.9 °F /  26.6 °C 70.1 °F /  21.2 °C 29.58in /  1001.6hPa SSW 2.0mph /  3.2km/h 7.0mph /  11.3km/h 72% 0.09in /  2.3mm
13:04 80.2 °F /  26.8 °C 70.8 °F /  21.6 °C 29.58in /  1001.6hPa Calm   7.0mph /  11.3km/h 73% 0.09in /  2.3mm
13:09 80.4 °F /  26.9 °C 71.0 °F /  21.7 °C 29.58in /  1001.6hPa Calm   6.0mph /  9.7km/h 73% 0.09in /  2.3mm
13:15 81.1 °F /  27.3 °C 71.6 °F /  22 °C 29.58in /  1001.6hPa SW 1.0mph /  1.6km/h 6.0mph /  9.7km/h 73% 0.09in /  2.3mm
13:24 81.9 °F /  27.7 °C 72.0 °F /  22.2 °C 29.57in /  1001.2hPa Calm   8.0mph /  12.9km/h 72% 0.09in /  2.3mm
13:29 82.4 °F /  28 °C 72.5 °F /  22.5 °C 29.57in /  1001.2hPa SSW 2.0mph /  3.2km/h 11.0mph /  17.7km/h 72% 0.09in /  2.3mm
13:35 82.7 °F /  28.2 °C 71.9 °F /  22.2 °C 29.57in /  1001.2hPa SW 3.0mph /  4.8km/h 11.0mph /  17.7km/h 70% 0.09in /  2.3mm
13:44 82.6 °F /  28.1 °C 71.8 °F /  22.1 °C 29.57in /  1001.2hPa WSW 1.0mph /  1.6km/h 9.0mph /  14.5km/h 70% 0.09in /  2.3mm
13:49 83.6 °F /  28.7 °C 72.8 °F /  22.7 °C 29.57in /  1001.2hPa SW 4.0mph /  6.4km/h 9.0mph /  14.5km/h 70% 0.09in /  2.3mm
13:55 84.7 °F /  29.3 °C 72.1 °F /  22.3 °C 29.56in /  1000.9hPa SW 2.0mph /  3.2km/h 11.0mph /  17.7km/h 66% 0.09in /  2.3mm
14:04 83.9 °F /  28.8 °C 71.3 °F /  21.8 °C 29.55in /  1000.6hPa SW 2.0mph /  3.2km/h 12.0mph /  19.3km/h 66% 0.09in /  2.3mm
14:09 83.6 °F /  28.7 °C 71.9 °F /  22.2 °C 29.55in /  1000.6hPa SW 3.0mph /  4.8km/h 12.0mph /  19.3km/h 68% 0.09in /  2.3mm
14:14 83.9 °F /  28.8 °C 71.3 °F /  21.8 °C 29.55in /  1000.6hPa SSW 2.0mph /  3.2km/h 11.0mph /  17.7km/h 66% 0.09in /  2.3mm
14:19 84.3 °F /  29.1 °C 72.2 °F /  22.3 °C 29.55in /  1000.6hPa SSW 1.0mph /  1.6km/h 9.0mph /  14.5km/h 67% 0.09in /  2.3mm
14:24 84.2 °F /  29 °C 72.5 °F /  22.5 °C 29.55in /  1000.6hPa South 1.0mph /  1.6km/h 10.0mph /  16.1km/h 68% 0.09in /  2.3mm
14:29 84.6 °F /  29.2 °C 71.6 °F /  22 °C 29.55in /  1000.6hPa SW 4.0mph /  6.4km/h 10.0mph /  16.1km/h 65% 0.09in /  2.3mm
14:34 85.1 °F /  29.5 °C 72.9 °F /  22.7 °C 29.55in /  1000.6hPa Calm   9.0mph /  14.5km/h 67% 0.09in /  2.3mm
14:39 85.2 °F /  29.6 °C 71.7 °F /  22.1 °C 29.55in /  1000.6hPa Calm   6.0mph /  9.7km/h 64% 0.09in /  2.3mm
14:44 84.7 °F /  29.3 °C 71.2 °F /  21.8 °C 29.54in /  1000.2hPa SW 1.0mph /  1.6km/h 6.0mph /  9.7km/h 64% 0.09in /  2.3mm
14:49 84.2 °F /  29 °C 71.6 °F /  22 °C 29.54in /  1000.2hPa Calm   8.0mph /  12.9km/h 66% 0.09in /  2.3mm
14:54 84.1 °F /  28.9 °C 72.4 °F /  22.4 °C 29.54in /  1000.2hPa Calm   8.0mph /  12.9km/h 68% 0.09in /  2.3mm
15:00 84.4 °F /  29.1 °C 73.6 °F /  23.1 °C 29.54in /  1000.2hPa Calm   5.0mph /  8km/h 70% 0.09in /  2.3mm
15:09 84.7 °F /  29.3 °C 73.4 °F /  23 °C 29.53in /  999.9hPa Calm   5.0mph /  8km/h 69% 0.09in /  2.3mm
15:14 84.9 °F /  29.4 °C 73.6 °F /  23.1 °C 29.54in /  1000.2hPa Calm     69% 0.09in /  2.3mm
15:19 85.4 °F /  29.7 °C 74.1 °F /  23.4 °C 29.53in /  999.9hPa Calm   1.0mph /  1.6km/h 69% 0.09in /  2.3mm
15:24 85.7 °F /  29.8 °C 75.2 °F /  24 °C 29.53in /  999.9hPa Calm   1.0mph /  1.6km/h 71% 0.09in /  2.3mm
15:29 85.9 °F /  29.9 °C 73.7 °F /  23.2 °C 29.53in /  999.9hPa Calm     67% 0.09in /  2.3mm
15:34 86.2 °F /  30.1 °C 76.5 °F /  24.7 °C 29.53in /  999.9hPa Calm     73% 0.09in /  2.3mm
15:39 85.9 °F /  29.9 °C 77.1 °F /  25.1 °C 29.53in /  999.9hPa Calm     75% 0.09in /  2.3mm
15:44 85.4 °F /  29.7 °C 76.2 °F /  24.6 °C 29.53in /  999.9hPa Calm     74% 0.09in /  2.3mm
15:49 84.7 °F /  29.3 °C 76.3 °F /  24.6 °C 29.53in /  999.9hPa Calm     76% 0.09in /  2.3mm
15:54 84.1 °F /  28.9 °C 75.7 °F /  24.3 °C 29.53in /  999.9hPa Calm     76% 0.09in /  2.3mm
15:59 83.5 °F /  28.6 °C 75.1 °F /  23.9 °C 29.54in /  1000.2hPa Calm     76% 0.09in /  2.3mm
16:04 82.3 °F /  27.9 °C 74.0 °F /  23.3 °C 29.53in /  999.9hPa Calm     76% 0.09in /  2.3mm
16:09 81.4 °F /  27.4 °C 73.9 °F /  23.3 °C 29.53in /  999.9hPa Calm     78% 0.09in /  2.3mm
16:14 80.7 °F /  27.1 °C 73.6 °F /  23.1 °C 29.55in /  1000.6hPa Calm     79% 0.09in /  2.3mm
16:19 79.9 °F /  26.6 °C 73.6 °F /  23.1 °C 29.53in /  999.9hPa Calm     81% 0.09in /  2.3mm
16:24 79.0 °F /  26.1 °C 73.0 °F /  22.8 °C 29.52in /  999.5hPa Calm     82% 0.09in /  2.3mm
16:29 78.4 °F /  25.8 °C 72.8 °F /  22.7 °C 29.53in /  999.9hPa Calm     83% 0.09in /  2.3mm
16:34 77.9 °F /  25.5 °C 73.0 °F /  22.8 °C 29.53in /  999.9hPa Calm     85% 0.09in /  2.3mm
16:40 77.4 °F /  25.2 °C 72.9 °F /  22.7 °C 29.53in /  999.9hPa Calm     86% 0.09in /  2.3mm
16:45 76.9 °F /  24.9 °C 72.4 °F /  22.4 °C 29.54in /  1000.2hPa Calm     86% 0.10in /  2.5mm
16:54 76.1 °F /  24.5 °C 72.0 °F /  22.2 °C 29.55in /  1000.6hPa Calm     87% 0.10in /  2.5mm
16:59 75.9 °F /  24.4 °C 71.8 °F /  22.1 °C 29.56in /  1000.9hPa SW 2.0mph /  3.2km/h 16.0mph /  25.7km/h 87% 0.10in /  2.5mm
17:04 76.4 °F /  24.7 °C 71.9 °F /  22.2 °C 29.56in /  1000.9hPa WSW 7.0mph /  11.3km/h 16.0mph /  25.7km/h 86% 0.10in /  2.5mm
17:09 76.6 °F /  24.8 °C 72.1 °F /  22.3 °C 29.55in /  1000.6hPa SW 3.0mph /  4.8km/h 15.0mph /  24.1km/h 86% 0.10in /  2.5mm
17:14 76.4 °F /  24.7 °C 71.6 °F /  22 °C 29.55in /  1000.6hPa WSW 2.0mph /  3.2km/h 9.0mph /  14.5km/h 85% 0.10in /  2.5mm
17:19 76.3 °F /  24.6 °C 71.8 °F /  22.1 °C 29.56in /  1000.9hPa Calm   8.0mph /  12.9km/h 86% 0.10in /  2.5mm
17:24 76.1 °F /  24.5 °C 71.6 °F /  22 °C 29.56in /  1000.9hPa Calm   4.0mph /  6.4km/h 86% 0.10in /  2.5mm
17:29 75.8 °F /  24.3 °C 71.3 °F /  21.8 °C 29.56in /  1000.9hPa Calm   3.0mph /  4.8km/h 86% 0.10in /  2.5mm
17:34 75.5 °F /  24.2 °C 71.0 °F /  21.7 °C 29.57in /  1001.2hPa Calm   3.0mph /  4.8km/h 86% 0.10in /  2.5mm
17:39 75.2 °F /  24 °C 70.7 °F /  21.5 °C 29.58in /  1001.6hPa Calm   2.0mph /  3.2km/h 86% 0.10in /  2.5mm
17:44 74.9 °F /  23.8 °C 70.4 °F /  21.3 °C 29.59in /  1001.9hPa West 1.0mph /  1.6km/h 11.0mph /  17.7km/h 86% 0.10in /  2.5mm
17:49 75.0 °F /  23.9 °C 68.8 °F /  20.4 °C 29.59in /  1001.9hPa West 5.0mph /  8km/h 14.0mph /  22.5km/h 81% 0.10in /  2.5mm
17:54 75.2 °F /  24 °C 68.6 °F /  20.3 °C 29.59in /  1001.9hPa WSW 3.0mph /  4.8km/h 14.0mph /  22.5km/h 80% 0.10in /  2.5mm
17:59 74.9 °F /  23.8 °C 68.3 °F /  20.2 °C 29.59in /  1001.9hPa WSW 1.0mph /  1.6km/h 10.0mph /  16.1km/h 80% 0.10in /  2.5mm
18:04 74.6 °F /  23.7 °C 68.4 °F /  20.2 °C 29.58in /  1001.6hPa SW 2.0mph /  3.2km/h 7.0mph /  11.3km/h 81% 0.10in /  2.5mm
18:09 74.3 °F /  23.5 °C 68.1 °F /  20.1 °C 29.58in /  1001.6hPa SW 3.0mph /  4.8km/h 10.0mph /  16.1km/h 81% 0.10in /  2.5mm
18:14 74.1 °F /  23.4 °C 68.3 °F /  20.2 °C 29.58in /  1001.6hPa SW 1.0mph /  1.6km/h 10.0mph /  16.1km/h 82% 0.10in /  2.5mm
18:19 74.0 °F /  23.3 °C 68.2 °F /  20.1 °C 29.58in /  1001.6hPa SW 1.0mph /  1.6km/h 8.0mph /  12.9km/h 82% 0.10in /  2.5mm
18:24 73.8 °F /  23.2 °C 68.3 °F /  20.2 °C 29.58in /  1001.6hPa SW 1.0mph /  1.6km/h 8.0mph /  12.9km/h 83% 0.10in /  2.5mm
18:29 73.7 °F /  23.2 °C 68.2 °F /  20.1 °C 29.58in /  1001.6hPa WSW 2.0mph /  3.2km/h 8.0mph /  12.9km/h 83% 0.10in /  2.5mm
18:34 73.7 °F /  23.2 °C 68.2 °F /  20.1 °C 29.58in /  1001.6hPa SW 4.0mph /  6.4km/h 10.0mph /  16.1km/h 83% 0.10in /  2.5mm
18:39 73.8 °F /  23.2 °C 68.3 °F /  20.2 °C 29.58in /  1001.6hPa SW 2.0mph /  3.2km/h 10.0mph /  16.1km/h 83% 0.10in /  2.5mm
18:44 73.9 °F /  23.3 °C 68.4 °F /  20.2 °C 29.58in /  1001.6hPa Calm   7.0mph /  11.3km/h 83% 0.10in /  2.5mm
18:49 73.9 °F /  23.3 °C 68.4 °F /  20.2 °C 29.58in /  1001.6hPa WSW 3.0mph /  4.8km/h 10.0mph /  16.1km/h 83% 0.10in /  2.5mm
18:54 74.0 °F /  23.3 °C 68.5 °F /  20.3 °C 29.58in /  1001.6hPa Calm   10.0mph /  16.1km/h 83% 0.10in /  2.5mm
18:59 73.9 °F /  23.3 °C 68.4 °F /  20.2 °C 29.59in /  1001.9hPa Calm   7.0mph /  11.3km/h 83% 0.10in /  2.5mm
19:04 73.9 °F /  23.3 °C 68.4 °F /  20.2 °C 29.60in /  1002.3hPa West 2.0mph /  3.2km/h 8.0mph /  12.9km/h 83% 0.10in /  2.5mm
19:09 73.9 °F /  23.3 °C 68.1 °F /  20.1 °C 29.60in /  1002.3hPa WSW 2.0mph /  3.2km/h 10.0mph /  16.1km/h 82% 0.10in /  2.5mm
19:15 73.9 °F /  23.3 °C 68.4 °F /  20.2 °C 29.60in /  1002.3hPa WSW 1.0mph /  1.6km/h 10.0mph /  16.1km/h 83% 0.10in /  2.5mm
19:24 73.5 °F /  23.1 °C 68.4 °F /  20.2 °C 29.60in /  1002.3hPa Calm   7.0mph /  11.3km/h 84% 0.10in /  2.5mm
19:29 73.2 °F /  22.9 °C 68.4 °F /  20.2 °C 29.60in /  1002.3hPa Calm   1.0mph /  1.6km/h 85% 0.10in /  2.5mm
19:34 73.0 °F /  22.8 °C 68.2 °F /  20.1 °C 29.60in /  1002.3hPa Calm   2.0mph /  3.2km/h 85% 0.10in /  2.5mm
19:39 72.8 °F /  22.7 °C 68.4 °F /  20.2 °C 29.60in /  1002.3hPa Calm   2.0mph /  3.2km/h 86% 0.10in /  2.5mm
19:44 72.6 °F /  22.6 °C 68.5 °F /  20.3 °C 29.61in /  1002.6hPa Calm   1.0mph /  1.6km/h 87% 0.10in /  2.5mm
19:49 72.4 °F /  22.4 °C 68.3 °F /  20.2 °C 29.61in /  1002.6hPa Calm   1.0mph /  1.6km/h 87% 0.10in /  2.5mm
19:54 72.2 °F /  22.3 °C 68.5 °F /  20.3 °C 29.61in /  1002.6hPa Calm     88% 0.10in /  2.5mm
19:59 72.0 °F /  22.2 °C 68.3 °F /  20.2 °C 29.60in /  1002.3hPa Calm     88% 0.17in /  4.3mm
20:04 71.8 °F /  22.1 °C 68.4 °F /  20.2 °C 29.61in /  1002.6hPa Calm   1.0mph /  1.6km/h 89% 0.17in /  4.3mm
20:09 71.5 °F /  21.9 °C 68.4 °F /  20.2 °C 29.62in /  1002.9hPa Calm   2.0mph /  3.2km/h 90% 0.17in /  4.3mm
20:14 71.3 °F /  21.8 °C 68.2 °F /  20.1 °C 29.61in /  1002.6hPa Calm   3.0mph /  4.8km/h 90% 0.17in /  4.3mm
20:19 71.3 °F /  21.8 °C 68.5 °F /  20.3 °C 29.62in /  1002.9hPa Calm   3.0mph /  4.8km/h 91% 0.17in /  4.3mm
20:24 71.2 °F /  21.8 °C 68.4 °F /  20.2 °C 29.61in /  1002.6hPa Calm     91% 0.17in /  4.3mm
20:29 71.1 °F /  21.7 °C 68.3 °F /  20.2 °C 29.61in /  1002.6hPa Calm     91% 0.17in /  4.3mm
20:34 71.0 °F /  21.7 °C 68.2 °F /  20.1 °C 29.61in /  1002.6hPa Calm     91% 0.17in /  4.3mm
20:39 70.8 °F /  21.6 °C 68.4 °F /  20.2 °C 29.61in /  1002.6hPa Calm   1.0mph /  1.6km/h 92% 0.17in /  4.3mm
20:44 70.7 °F /  21.5 °C 68.3 °F /  20.2 °C 29.61in /  1002.6hPa Calm   1.0mph /  1.6km/h 92% 0.17in /  4.3mm
20:49 70.6 °F /  21.4 °C 68.2 °F /  20.1 °C 29.62in /  1002.9hPa SSW 1.0mph /  1.6km/h 4.0mph /  6.4km/h 92% 0.17in /  4.3mm
20:54 70.4 °F /  21.3 °C 68.0 °F /  20 °C 29.62in /  1002.9hPa Calm   4.0mph /  6.4km/h 92% 0.17in /  4.3mm
20:59 70.3 °F /  21.3 °C 67.9 °F /  19.9 °C 29.62in /  1002.9hPa Calm   4.0mph /  6.4km/h 92% 0.17in /  4.3mm
21:04 70.3 °F /  21.3 °C 68.2 °F /  20.1 °C 29.60in /  1002.3hPa Calm     93% 0.17in /  4.3mm
21:09 70.2 °F /  21.2 °C 68.1 °F /  20.1 °C 29.60in /  1002.3hPa Calm     93% 0.17in /  4.3mm
21:14 70.1 °F /  21.2 °C 68.0 °F /  20 °C 29.61in /  1002.6hPa Calm     93% 0.17in /  4.3mm
21:19 70.1 °F /  21.2 °C 68.0 °F /  20 °C 29.62in /  1002.9hPa Calm     93% 0.17in /  4.3mm
21:24 70.1 °F /  21.2 °C 68.0 °F /  20 °C 29.66in /  1004.3hPa WSW 1.0mph /  1.6km/h 7.0mph /  11.3km/h 93% 0.17in /  4.3mm
21:29 70.3 °F /  21.3 °C 68.5 °F /  20.3 °C 29.66in /  1004.3hPa SW 3.0mph /  4.8km/h 10.0mph /  16.1km/h 94% 0.17in /  4.3mm
21:34 70.4 °F /  21.3 °C 68.6 °F /  20.3 °C 29.66in /  1004.3hPa SW 2.0mph /  3.2km/h 10.0mph /  16.1km/h 94% 0.17in /  4.3mm
21:39 70.4 °F /  21.3 °C 68.6 °F /  20.3 °C 29.65in /  1003.9hPa Calm   8.0mph /  12.9km/h 94% 0.17in /  4.3mm
21:44 70.3 °F /  21.3 °C 68.5 °F /  20.3 °C 29.65in /  1003.9hPa Calm   7.0mph /  11.3km/h 94% 0.17in /  4.3mm
21:49 70.2 °F /  21.2 °C 68.4 °F /  20.2 °C 29.65in /  1003.9hPa SW 1.0mph /  1.6km/h 8.0mph /  12.9km/h 94% 0.17in /  4.3mm
21:54 70.0 °F /  21.1 °C 68.2 °F /  20.1 °C 29.65in /  1003.9hPa Calm   8.0mph /  12.9km/h 94% 0.17in /  4.3mm
21:59 69.8 °F /  21 °C 68.0 °F /  20 °C 29.65in /  1003.9hPa Calm   1.0mph /  1.6km/h 94% 0.17in /  4.3mm
22:04 69.7 °F /  20.9 °C 67.9 °F /  19.9 °C 29.65in /  1003.9hPa Calm   1.0mph /  1.6km/h 94% 0.17in /  4.3mm
22:09 69.5 °F /  20.8 °C 67.7 °F /  19.8 °C 29.64in /  1003.6hPa SSW 1.0mph /  1.6km/h 7.0mph /  11.3km/h 94% 0.17in /  4.3mm
22:14 69.5 °F /  20.8 °C 67.7 °F /  19.8 °C 29.64in /  1003.6hPa Calm   7.0mph /  11.3km/h 94% 0.17in /  4.3mm
22:19 69.4 °F /  20.8 °C 67.6 °F /  19.8 °C 29.64in /  1003.6hPa SSW 1.0mph /  1.6km/h 4.0mph /  6.4km/h 94% 0.17in /  4.3mm
22:24 69.4 °F /  20.8 °C 67.9 °F /  19.9 °C 29.64in /  1003.6hPa Calm   4.0mph /  6.4km/h 95% 0.17in /  4.3mm
22:29 69.5 °F /  20.8 °C 68.0 °F /  20 °C 29.65in /  1003.9hPa Calm   4.0mph /  6.4km/h 95% 0.17in /  4.3mm
22:34 69.5 °F /  20.8 °C 68.0 °F /  20 °C 29.65in /  1003.9hPa Calm     95% 0.17in /  4.3mm
22:39 69.5 °F /  20.8 °C 68.0 °F /  20 °C 29.65in /  1003.9hPa Calm     95% 0.17in /  4.3mm
22:44 69.6 °F /  20.9 °C 68.1 °F /  20.1 °C 29.66in /  1004.3hPa Calm   5.0mph /  8km/h 95% 0.17in /  4.3mm
22:49 69.7 °F /  20.9 °C 68.2 °F /  20.1 °C 29.66in /  1004.3hPa Calm   5.0mph /  8km/h 95% 0.17in /  4.3mm
22:54 69.7 °F /  20.9 °C 68.2 °F /  20.1 °C 29.65in /  1003.9hPa Calm   1.0mph /  1.6km/h 95% 0.17in /  4.3mm
22:59 69.7 °F /  20.9 °C 68.2 °F /  20.1 °C 29.65in /  1003.9hPa Calm     95% 0.17in /  4.3mm
23:04 69.6 °F /  20.9 °C 68.1 °F /  20.1 °C 29.65in /  1003.9hPa Calm     95% 0.17in /  4.3mm
23:09 69.7 °F /  20.9 °C 68.2 °F /  20.1 °C 29.66in /  1004.3hPa Calm     95% 0.17in /  4.3mm
23:14 69.8 °F /  21 °C 68.6 °F /  20.3 °C 29.66in /  1004.3hPa Calm     96% 0.17in /  4.3mm
23:19 69.8 °F /  21 °C 68.6 °F /  20.3 °C 29.66in /  1004.3hPa Calm     96% 0.17in /  4.3mm
23:24 69.9 °F /  21.1 °C 68.7 °F /  20.4 °C 29.67in /  1004.6hPa Calm     96% 0.17in /  4.3mm
23:29 70.1 °F /  21.2 °C 68.9 °F /  20.5 °C 29.68in /  1005hPa Calm   3.0mph /  4.8km/h 96% 0.17in /  4.3mm
23:34 70.2 °F /  21.2 °C 69.0 °F /  20.6 °C 29.68in /  1005hPa NNW 3.0mph /  4.8km/h 10.0mph /  16.1km/h 96% 0.17in /  4.3mm
23:39 70.0 °F /  21.1 °C 68.8 °F /  20.4 °C 29.68in /  1005hPa WNW 1.0mph /  1.6km/h 10.0mph /  16.1km/h 96% 0.17in /  4.3mm
23:44 69.7 °F /  20.9 °C 68.5 °F /  20.3 °C 29.68in /  1005hPa WNW 1.0mph /  1.6km/h 8.0mph /  12.9km/h 96% 0.17in /  4.3mm
23:49 69.6 °F /  20.9 °C 68.4 °F /  20.2 °C 29.69in /  1005.3hPa WNW 3.0mph /  4.8km/h 9.0mph /  14.5km/h 96% 0.17in /  4.3mm
23:54 69.3 °F /  20.7 °C 67.8 °F /  19.9 °C 29.69in /  1005.3hPa NW 2.0mph /  3.2km/h 11.0mph /  17.7km/h 95% 0.17in /  4.3mm
23:59 68.9 °F /  20.5 °C 67.4 °F /  19.7 °C 29.69in /  1005.3hPa WNW 3.0mph /  4.8km/h 11.0mph /  17.7km/h 95% 0.17in /  4.3mm
Westford Weather
Compliments of Weather Underground

 
 
Current Radar Loop:

Copyright © WestfordWeather.net 2007-2014. All rights reserved.